createdAt,value
2017-08-26T00:01:43.135Z,68.50
2017-08-26T00:04:10.716Z,68.30
2017-08-26T00:06:38.292Z,67.80
2017-08-26T00:09:05.891Z,67.90
2017-08-26T00:11:33.500Z,68.20
2017-08-26T00:14:01.116Z,69.30
2017-08-26T00:16:28.709Z,67.90
2017-08-26T00:18:56.337Z,68.70
2017-08-26T00:21:23.915Z,68.50
2017-08-26T00:23:51.484Z,69.20
2017-08-26T00:26:19.093Z,68.40
2017-08-26T00:28:46.709Z,68.70
2017-08-26T00:31:14.312Z,68.40
2017-08-26T00:33:41.895Z,68.30
2017-08-26T00:36:09.516Z,68.00
2017-08-26T00:38:37.124Z,68.50
2017-08-26T00:41:04.714Z,70.10
2017-08-26T00:43:32.323Z,69.50
2017-08-26T00:45:59.921Z,69.80
2017-08-26T00:48:27.531Z,69.40
2017-08-26T00:50:55.156Z,69.70
2017-08-26T00:53:22.782Z,69.00
2017-08-26T00:55:50.382Z,68.80
2017-08-26T00:58:17.967Z,69.80
2017-08-26T01:00:45.571Z,70.60
2017-08-26T01:03:13.177Z,70.40
2017-08-26T01:05:40.789Z,70.30
2017-08-26T01:08:08.418Z,69.20
2017-08-26T01:10:35.998Z,69.00
2017-08-26T01:13:03.586Z,68.20
2017-08-26T01:15:31.195Z,69.50
2017-08-26T01:17:58.796Z,69.80
2017-08-26T01:20:27.058Z,69.40
2017-08-26T01:22:54.661Z,70.50
2017-08-26T01:25:22.258Z,69.50
2017-08-26T01:27:49.862Z,70.00
2017-08-26T01:30:17.440Z,70.40
2017-08-26T01:32:45.020Z,70.30
2017-08-26T01:35:12.600Z,70.10
2017-08-26T01:37:40.191Z,70.30
2017-08-26T01:40:07.802Z,70.70
2017-08-26T01:42:35.401Z,72.10
2017-08-26T01:45:02.998Z,71.60
2017-08-26T01:47:30.593Z,72.70
2017-08-26T01:49:58.200Z,72.40
2017-08-26T01:52:25.812Z,71.80
2017-08-26T01:54:53.427Z,71.80
2017-08-26T01:57:21.033Z,72.60
2017-08-26T01:59:48.619Z,72.50
2017-08-26T02:02:16.225Z,72.20
2017-08-26T02:04:43.805Z,72.60
2017-08-26T02:07:11.401Z,72.60
2017-08-26T02:09:38.998Z,72.30
2017-08-26T02:12:06.601Z,71.80
2017-08-26T02:14:34.210Z,72.10
2017-08-26T02:17:01.786Z,72.80
2017-08-26T02:19:29.374Z,72.40
2017-08-26T02:21:56.993Z,72.60
2017-08-26T02:24:24.590Z,73.30
2017-08-26T02:26:52.172Z,73.30
2017-08-26T02:29:19.786Z,72.90
2017-08-26T02:31:47.364Z,72.50
2017-08-26T02:34:14.984Z,72.40
2017-08-26T02:36:42.570Z,73.70
2017-08-26T02:39:10.147Z,74.00
2017-08-26T02:41:37.724Z,74.40
2017-08-26T02:44:05.325Z,75.00
2017-08-26T02:46:33.242Z,74.50
2017-08-26T02:49:00.825Z,75.50
2017-08-26T02:51:28.426Z,74.90
2017-08-26T02:53:56.230Z,74.60
2017-08-26T03:02:04.959Z,74.50
2017-08-26T03:04:32.548Z,73.70
2017-08-26T03:07:00.145Z,73.60
2017-08-26T03:09:27.748Z,74.80
2017-08-26T03:11:55.373Z,74.70
2017-08-26T03:14:22.976Z,74.10
2017-08-26T03:16:50.581Z,74.40
2017-08-26T03:19:18.178Z,74.80
2017-08-26T03:21:45.770Z,75.80
2017-08-26T03:24:13.417Z,76.00
2017-08-26T03:26:41.024Z,75.00
2017-08-26T03:29:08.621Z,75.20
2017-08-26T03:31:36.225Z,74.80
2017-08-26T03:34:03.840Z,74.30
2017-08-26T03:36:31.436Z,74.60
2017-08-26T03:38:59.042Z,75.40
2017-08-26T03:41:26.631Z,75.30
2017-08-26T03:43:54.231Z,75.40
2017-08-26T03:46:21.818Z,75.30
2017-08-26T03:48:49.421Z,76.00
2017-08-26T03:51:17.053Z,76.30
2017-08-26T03:53:44.655Z,76.30
2017-08-26T03:56:12.249Z,76.00
2017-08-26T03:58:39.839Z,76.20
2017-08-26T04:01:07.438Z,76.60
2017-08-26T04:03:35.034Z,76.40
2017-08-26T04:06:02.642Z,75.60
2017-08-26T04:08:30.559Z,75.40
2017-08-26T04:10:58.177Z,75.60
2017-08-26T04:13:25.783Z,75.80
2017-08-26T04:15:53.384Z,76.10
2017-08-26T04:18:20.974Z,76.00
2017-08-26T04:20:48.574Z,76.00
2017-08-26T04:23:16.174Z,76.90
2017-08-26T04:25:43.798Z,76.40
2017-08-26T04:28:11.392Z,75.70
2017-08-26T04:30:38.976Z,76.10
2017-08-26T04:33:06.578Z,76.10
2017-08-26T04:35:34.177Z,76.50
2017-08-26T04:38:01.806Z,76.70
2017-08-26T04:40:29.406Z,77.00
2017-08-26T04:42:57.008Z,76.70
2017-08-26T04:45:24.622Z,76.30
2017-08-26T04:47:52.218Z,76.70
2017-08-26T04:50:19.840Z,76.00
2017-08-26T04:52:48.403Z,76.50
2017-08-26T04:55:15.989Z,76.20
2017-08-26T04:57:43.595Z,76.40
2017-08-26T05:00:11.189Z,76.50
2017-08-26T05:02:38.809Z,76.00
2017-08-26T05:05:06.409Z,76.60
2017-08-26T05:07:34.033Z,76.80
2017-08-26T05:10:01.635Z,75.90
2017-08-26T05:12:29.264Z,76.80
2017-08-26T05:14:56.875Z,76.20
2017-08-26T05:17:24.478Z,75.70
2017-08-26T05:19:52.078Z,76.40
2017-08-26T05:22:19.669Z,76.70
2017-08-26T05:24:47.261Z,76.40
2017-08-26T05:27:14.898Z,76.00
2017-08-26T05:29:42.492Z,76.20
2017-08-26T05:32:10.100Z,76.40
2017-08-26T05:34:37.676Z,75.90
2017-08-26T05:37:05.273Z,75.90
2017-08-26T05:39:32.851Z,75.90
2017-08-26T05:42:00.427Z,76.60
2017-08-26T05:44:28.039Z,76.50
2017-08-26T05:49:53.793Z,76.90
2017-08-26T05:52:21.407Z,76.20
2017-08-26T05:54:49.028Z,75.00
2017-08-26T05:57:16.629Z,74.90
2017-08-26T05:59:44.243Z,75.00
2017-08-26T06:02:12.007Z,74.80
2017-08-26T06:04:39.599Z,74.90
2017-08-26T06:07:07.209Z,74.50
2017-08-26T06:09:34.805Z,74.10
2017-08-26T06:12:02.402Z,73.20
2017-08-26T06:14:30.016Z,72.80
2017-08-26T06:16:57.614Z,72.90
2017-08-26T06:19:25.639Z,72.20
2017-08-26T06:21:53.220Z,71.60
2017-08-26T06:24:20.831Z,72.30
2017-08-26T06:26:48.416Z,72.10
2017-08-26T06:29:16.064Z,72.20
2017-08-26T06:31:43.650Z,72.20
2017-08-26T06:34:11.242Z,72.00
2017-08-26T06:36:38.844Z,71.90
2017-08-26T06:39:06.462Z,71.40
2017-08-26T06:41:34.043Z,71.40
2017-08-26T06:44:01.642Z,71.20
2017-08-26T06:46:29.226Z,72.00
2017-08-26T06:48:56.840Z,71.50
2017-08-26T06:51:24.428Z,71.00
2017-08-26T06:53:52.027Z,71.20
2017-08-26T06:56:19.653Z,72.00
2017-08-26T06:58:47.258Z,70.70
2017-08-26T07:01:14.872Z,71.00
2017-08-26T07:03:42.484Z,70.40
2017-08-26T07:06:10.083Z,69.70
2017-08-26T07:08:37.707Z,68.80
2017-08-26T07:11:05.320Z,67.90
2017-08-26T07:13:32.900Z,68.00
2017-08-26T07:16:00.504Z,67.10
2017-08-26T07:18:28.105Z,67.10
2017-08-26T07:20:55.687Z,67.90
2017-08-26T07:23:23.319Z,68.90
2017-08-26T07:25:50.939Z,68.20
2017-08-26T07:28:18.548Z,67.10
2017-08-26T07:30:46.211Z,67.90
2017-08-26T07:33:13.817Z,67.30
2017-08-26T07:35:41.405Z,67.10
2017-08-26T07:38:09.001Z,66.90
2017-08-26T07:40:36.601Z,65.90
2017-08-26T07:43:04.208Z,65.50
2017-08-26T07:45:31.799Z,66.00
2017-08-26T07:47:59.414Z,64.40
2017-08-26T07:50:27.045Z,64.00
2017-08-26T07:52:54.669Z,64.00
2017-08-26T07:55:22.260Z,64.30
2017-08-26T07:57:49.835Z,64.30
2017-08-26T08:00:17.456Z,63.50
2017-08-26T08:02:45.890Z,62.90
2017-08-26T08:05:13.472Z,61.60
2017-08-26T08:07:41.057Z,63.20
2017-08-26T08:10:08.647Z,61.20
2017-08-26T08:12:36.246Z,60.60
2017-08-26T08:15:03.846Z,60.10
2017-08-26T08:17:31.447Z,59.90
2017-08-26T08:19:59.808Z,59.00
2017-08-26T08:22:27.427Z,58.60
2017-08-26T08:24:55.032Z,57.50
2017-08-26T08:27:22.638Z,55.80
2017-08-26T08:29:50.247Z,57.30
2017-08-26T08:32:17.916Z,56.40
2017-08-26T08:34:45.581Z,57.10
2017-08-26T08:37:13.196Z,57.50
2017-08-26T08:39:40.801Z,58.20
2017-08-26T08:42:08.379Z,58.80
2017-08-26T08:44:35.981Z,59.60
2017-08-26T08:47:03.587Z,61.20
2017-08-26T08:49:31.211Z,59.80
2017-08-26T08:51:58.811Z,59.60
2017-08-26T08:54:26.948Z,59.20
2017-08-26T08:56:54.547Z,57.60
2017-08-26T08:59:22.150Z,58.80
2017-08-26T09:01:49.762Z,57.50
2017-08-26T09:04:17.378Z,56.90
2017-08-26T09:06:45.776Z,56.10
2017-08-26T09:09:13.423Z,54.80
2017-08-26T09:11:41.069Z,55.10
2017-08-26T09:14:09.320Z,55.80
2017-08-26T09:16:36.930Z,55.80
2017-08-26T09:19:05.362Z,55.60
2017-08-26T09:21:32.947Z,55.80
2017-08-26T09:24:00.600Z,55.00
2017-08-26T09:26:28.214Z,53.50
2017-08-26T09:28:55.878Z,51.90
2017-08-26T09:31:23.485Z,51.10
2017-08-26T09:33:51.182Z,51.30
2017-08-26T09:36:19.223Z,51.70
2017-08-26T09:38:47.551Z,51.30
2017-08-26T09:41:16.172Z,51.40
2017-08-26T09:43:43.797Z,52.60
2017-08-26T09:46:11.666Z,51.70
2017-08-26T09:48:40.210Z,52.60
2017-08-26T09:51:07.823Z,54.30
2017-08-26T09:53:35.445Z,55.50
2017-08-26T09:56:03.057Z,54.60
2017-08-26T09:58:30.685Z,54.80
2017-08-26T10:00:58.270Z,56.00
2017-08-26T10:03:25.888Z,58.10
2017-08-26T10:05:53.504Z,57.50
2017-08-26T10:08:21.114Z,59.50
2017-08-26T10:10:48.719Z,59.70
2017-08-26T10:13:16.341Z,60.00
2017-08-26T10:15:43.941Z,59.40
2017-08-26T10:18:11.552Z,59.80
2017-08-26T10:24:21.351Z,62.00
2017-08-26T10:26:51.310Z,63.40
2017-08-26T10:29:19.029Z,64.80
2017-08-26T10:31:47.715Z,65.20
2017-08-26T10:34:17.666Z,67.90
2017-08-26T10:36:46.453Z,67.60
2017-08-26T10:39:14.326Z,68.50
2017-08-26T10:41:42.143Z,69.30
2017-08-26T10:44:09.804Z,69.80
2017-08-26T10:46:38.562Z,69.40
2017-08-26T10:49:06.243Z,69.10
2017-08-26T10:51:33.919Z,68.90
2017-08-26T10:54:01.611Z,68.80
2017-08-26T10:56:29.412Z,68.60
2017-08-26T10:58:57.205Z,67.80
2017-08-26T11:01:24.900Z,68.10
2017-08-26T11:03:52.626Z,68.00
2017-08-26T11:06:20.270Z,68.30
2017-08-26T11:08:48.055Z,68.00
2017-08-26T11:11:15.759Z,69.10
2017-08-26T11:13:43.567Z,68.90
2017-08-26T11:16:11.262Z,69.70
2017-08-26T11:18:39.106Z,69.70
2017-08-26T11:21:06.863Z,70.10
2017-08-26T11:23:34.550Z,70.00
2017-08-26T11:26:02.243Z,70.00
2017-08-26T11:28:29.971Z,69.60
2017-08-26T11:30:58.616Z,69.60
2017-08-26T11:33:26.332Z,69.40
2017-08-26T11:35:54.312Z,69.20
2017-08-26T11:38:23.040Z,69.40
2017-08-26T11:40:50.752Z,70.00
2017-08-26T11:43:19.512Z,70.00
2017-08-26T11:45:50.340Z,69.60
2017-08-26T11:48:19.040Z,68.60
2017-08-26T11:50:47.737Z,69.10
2017-08-26T11:53:18.899Z,69.20
2017-08-26T11:55:46.661Z,68.10
2017-08-26T11:58:14.383Z,67.00
2017-08-26T12:03:23.743Z,67.90
2017-08-26T12:05:51.434Z,68.00
2017-08-26T12:08:19.101Z,67.90
2017-08-26T12:10:46.742Z,68.10
2017-08-26T12:13:14.402Z,67.20
2017-08-26T12:15:42.043Z,66.90
2017-08-26T12:18:09.670Z,66.90
2017-08-26T12:20:37.288Z,67.30
2017-08-26T12:23:04.930Z,67.80
2017-08-26T12:25:33.342Z,66.80
2017-08-26T12:28:01.013Z,67.60
2017-08-26T12:30:28.683Z,68.00
2017-08-26T12:32:56.347Z,68.30
2017-08-26T12:35:24.032Z,66.40
2017-08-26T12:37:51.685Z,66.90
2017-08-26T12:40:19.327Z,65.20
2017-08-26T12:42:47.023Z,64.00
2017-08-26T12:45:14.726Z,64.20
2017-08-26T12:47:42.655Z,64.30
2017-08-26T12:50:10.346Z,62.30
2017-08-26T12:52:38.020Z,62.90
2017-08-26T12:55:05.647Z,63.60
2017-08-26T12:57:33.326Z,61.30
2017-08-26T13:00:00.926Z,61.40
2017-08-26T13:02:28.543Z,62.30
2017-08-26T13:04:56.144Z,61.60
2017-08-26T13:07:23.769Z,62.00
2017-08-26T13:09:51.392Z,62.40
2017-08-26T13:12:19.003Z,61.80
2017-08-26T13:14:46.620Z,60.90
2017-08-26T13:17:14.978Z,60.10
2017-08-26T13:19:42.596Z,59.90
2017-08-26T13:22:10.207Z,59.20
2017-08-26T13:24:37.820Z,60.10
2017-08-26T13:27:05.442Z,60.40
2017-08-26T13:29:33.046Z,60.60
2017-08-26T13:32:00.647Z,61.10
2017-08-26T13:34:28.255Z,61.00
2017-08-26T13:36:55.843Z,60.60
2017-08-26T13:39:23.517Z,61.40
2017-08-26T13:41:51.107Z,61.50
2017-08-26T13:44:18.730Z,62.00
2017-08-26T14:09:27.664Z,62.60
2017-08-26T14:11:56.658Z,61.90
2017-08-26T14:14:24.312Z,63.00
2017-08-26T14:16:52.288Z,60.70
2017-08-26T14:19:19.929Z,59.00
2017-08-26T14:21:47.542Z,59.20
2017-08-26T14:24:15.349Z,59.00
2017-08-26T14:26:43.106Z,59.20
2017-08-26T14:29:10.742Z,58.40
2017-08-26T14:31:40.161Z,59.30
2017-08-26T14:34:17.973Z,59.00
2017-08-26T14:36:45.793Z,60.20
2017-08-26T14:39:13.443Z,58.50
2017-08-26T14:43:00.381Z,61.40
2017-08-26T14:45:27.976Z,59.90
2017-08-26T14:47:55.578Z,58.40
2017-08-26T14:50:23.176Z,58.00
2017-08-26T14:52:50.805Z,58.40
2017-08-26T14:55:19.396Z,57.30
2017-08-26T14:57:47.761Z,56.30
2017-08-26T15:00:15.409Z,56.50
2017-08-26T15:02:43.024Z,54.30
2017-08-26T15:05:10.629Z,54.40
2017-08-26T15:07:38.265Z,53.80
2017-08-26T15:10:05.882Z,53.60
2017-08-26T15:12:33.505Z,54.10
2017-08-26T15:15:01.121Z,52.80
2017-08-26T15:17:28.737Z,53.80
2017-08-26T15:19:56.378Z,53.70
2017-08-26T15:22:24.020Z,55.10
2017-08-26T15:24:51.651Z,53.70
2017-08-26T15:27:19.284Z,53.00
2017-08-26T15:29:48.132Z,53.30
2017-08-26T15:32:16.476Z,53.70
2017-08-26T15:34:44.113Z,53.10
2017-08-26T15:37:12.811Z,53.70
2017-08-26T15:39:40.395Z,53.50
2017-08-26T15:42:08.022Z,52.50
2017-08-26T15:44:35.713Z,53.40
2017-08-26T15:47:07.741Z,53.40
2017-08-26T15:49:35.380Z,53.70
2017-08-26T15:52:03.009Z,54.10
2017-08-26T15:54:30.599Z,53.30
2017-08-26T15:56:58.200Z,53.10
2017-08-26T15:59:26.619Z,54.40
2017-08-26T16:01:54.248Z,51.30
2017-08-26T16:04:21.845Z,52.40
2017-08-26T16:06:49.478Z,51.80
2017-08-26T16:09:17.067Z,51.00
2017-08-26T16:11:44.695Z,51.30
2017-08-26T16:14:12.483Z,51.70
2017-08-26T16:16:40.125Z,50.20
2017-08-26T16:19:08.123Z,50.20
2017-08-26T16:21:37.415Z,48.90
2017-08-26T16:24:05.443Z,48.60
2017-08-26T16:26:33.209Z,49.40
2017-08-26T16:29:00.895Z,50.20
2017-08-26T16:31:28.498Z,49.30
2017-08-26T16:33:56.167Z,50.00
2017-08-26T16:36:24.007Z,50.30
2017-08-26T16:38:51.784Z,48.70
2017-08-26T16:41:19.406Z,49.20
2017-08-26T16:43:47.038Z,50.10
2017-08-26T16:46:15.522Z,49.50
2017-08-26T16:48:43.155Z,49.20
2017-08-26T16:51:10.812Z,49.80
2017-08-26T16:53:38.443Z,50.00
2017-08-26T16:56:07.503Z,52.00
2017-08-26T16:58:35.498Z,52.00
2017-08-26T17:01:03.110Z,50.70
2017-08-26T17:03:30.799Z,50.70
2017-08-26T17:05:58.430Z,50.70
2017-08-26T17:08:26.095Z,50.60
2017-08-26T17:10:53.758Z,49.90
2017-08-26T17:13:21.402Z,49.20
2017-08-26T17:15:57.810Z,48.30
2017-08-26T17:18:25.441Z,49.60
2017-08-26T17:20:53.064Z,50.10
2017-08-26T17:23:20.691Z,51.00
2017-08-26T17:25:48.324Z,51.00
2017-08-26T17:28:15.979Z,52.40
2017-08-26T17:30:43.646Z,52.50
2017-08-26T17:33:11.290Z,53.10
2017-08-26T17:35:38.912Z,52.90
2017-08-26T17:38:07.300Z,53.30
2017-08-26T17:40:34.911Z,53.90
2017-08-26T17:46:06.729Z,54.80
2017-08-26T17:48:34.376Z,54.20
2017-08-26T17:51:01.985Z,54.70
2017-08-26T17:53:29.602Z,55.20
2017-08-26T17:55:57.215Z,55.60
2017-08-26T17:58:25.015Z,55.80
2017-08-26T18:00:52.667Z,55.20
2017-08-26T18:03:20.288Z,55.40
2017-08-26T18:05:48.900Z,55.30
2017-08-26T18:08:16.513Z,56.10
2017-08-26T18:10:44.164Z,56.50
2017-08-26T18:13:11.798Z,57.10
2017-08-26T18:15:39.410Z,57.10
2017-08-26T18:18:07.049Z,56.50
2017-08-26T18:20:34.678Z,56.10
2017-08-26T18:23:02.325Z,57.20
2017-08-26T18:25:29.991Z,58.00
2017-08-26T18:27:57.688Z,56.80
2017-08-26T18:30:25.313Z,56.50
2017-08-26T18:32:52.941Z,56.60
2017-08-26T18:35:20.540Z,56.50
2017-08-26T18:37:48.773Z,57.60
2017-08-26T18:40:16.485Z,59.90
2017-08-26T18:42:44.085Z,58.70
2017-08-26T18:45:11.707Z,60.50
2017-08-26T18:47:39.353Z,61.40
2017-08-26T18:50:07.172Z,59.10
2017-08-26T18:52:34.806Z,60.70
2017-08-26T18:55:02.419Z,62.50
2017-08-26T18:57:30.027Z,63.40
2017-08-26T18:59:57.686Z,63.50
2017-08-26T19:02:25.333Z,64.70
2017-08-26T19:04:52.977Z,65.10
2017-08-26T19:07:20.603Z,65.10
2017-08-26T19:09:48.210Z,65.00
2017-08-26T19:12:15.814Z,65.50
2017-08-26T19:14:43.418Z,65.00
2017-08-26T19:17:11.140Z,65.60
2017-08-26T19:19:38.790Z,64.80
2017-08-26T19:22:06.421Z,64.80
2017-08-26T19:24:34.036Z,65.90
2017-08-26T19:27:01.663Z,66.20
2017-08-26T19:29:29.255Z,66.30
2017-08-26T19:31:56.842Z,66.60
2017-08-26T19:34:24.439Z,66.50
2017-08-26T19:36:52.033Z,67.10
2017-08-26T19:39:19.636Z,67.30
2017-08-26T19:41:47.244Z,67.70
2017-08-26T19:44:14.840Z,67.70
2017-08-26T19:46:42.465Z,68.00
2017-08-26T19:49:10.263Z,68.60
2017-08-26T19:51:37.928Z,69.00
2017-08-26T19:54:05.524Z,69.40
2017-08-26T19:56:34.097Z,69.60
2017-08-26T19:59:03.672Z,70.10
2017-08-26T20:01:31.295Z,69.80
2017-08-26T20:03:58.920Z,70.00
2017-08-26T20:06:26.539Z,70.50
2017-08-26T20:08:54.143Z,71.20
2017-08-26T20:11:21.761Z,71.70
2017-08-26T20:13:49.357Z,71.50
2017-08-26T20:16:16.986Z,72.50
2017-08-26T20:18:44.594Z,72.10
2017-08-26T20:21:12.188Z,72.50
2017-08-26T20:23:39.819Z,73.80
2017-08-26T20:26:07.424Z,73.70
2017-08-26T20:28:35.035Z,74.20
2017-08-26T20:31:02.676Z,74.60
2017-08-26T20:33:30.311Z,74.90
2017-08-26T20:35:57.921Z,75.00
2017-08-26T20:38:25.563Z,75.50
2017-08-26T20:40:53.187Z,75.90
2017-08-26T20:43:20.805Z,76.10
2017-08-26T20:45:48.412Z,76.60
2017-08-26T20:48:16.035Z,76.70
2017-08-26T20:50:43.673Z,77.00
2017-08-26T20:53:11.306Z,77.50
2017-08-26T20:55:38.929Z,77.40
2017-08-26T20:58:06.561Z,77.60
2017-08-26T21:00:34.262Z,77.70
2017-08-26T21:03:01.989Z,77.70
2017-08-26T21:05:29.635Z,78.20
2017-08-26T21:07:57.251Z,78.20
2017-08-26T21:10:24.980Z,78.40
2017-08-26T21:12:52.695Z,78.50
2017-08-26T21:15:20.530Z,78.50
2017-08-26T21:17:49.085Z,78.70
2017-08-26T21:23:16.932Z,79.50
2017-08-26T21:25:44.601Z,79.20
2017-08-26T21:28:12.241Z,79.10
2017-08-26T21:30:39.863Z,79.30
2017-08-26T21:33:07.465Z,79.10
2017-08-26T21:35:35.081Z,79.20
2017-08-26T21:38:02.697Z,79.60
2017-08-26T21:40:30.306Z,79.50
2017-08-26T21:42:57.918Z,79.60
2017-08-26T21:45:25.534Z,80.00
2017-08-26T21:47:53.163Z,79.60
2017-08-26T21:50:20.767Z,79.60
2017-08-26T21:52:48.415Z,79.60
2017-08-26T21:55:16.107Z,79.60
2017-08-26T21:57:43.745Z,79.60
2017-08-26T22:00:12.182Z,79.70
2017-08-26T22:02:39.810Z,79.80
2017-08-26T22:05:07.478Z,79.80
2017-08-26T22:07:35.086Z,79.70
2017-08-26T22:10:02.723Z,79.70
2017-08-26T22:12:30.323Z,79.80
2017-08-26T22:14:57.926Z,79.90
2017-08-26T22:17:25.551Z,80.00
2017-08-26T22:19:53.159Z,80.10
2017-08-26T22:22:20.774Z,80.10
2017-08-26T22:24:48.405Z,80.20
2017-08-26T22:27:15.995Z,80.00
2017-08-26T22:29:43.625Z,80.40
2017-08-26T22:32:11.246Z,80.90
2017-08-26T22:34:38.884Z,80.60
2017-08-26T22:37:06.498Z,80.60
2017-08-26T22:39:34.128Z,80.70
2017-08-26T22:42:01.758Z,80.70
2017-08-26T22:44:29.378Z,80.70
2017-08-26T22:46:57.010Z,81.00
2017-08-26T22:49:24.621Z,80.90
2017-08-26T22:51:52.255Z,81.30
2017-08-26T22:54:19.887Z,81.00
2017-08-26T22:56:47.563Z,81.10
2017-08-26T22:59:15.210Z,81.20
2017-08-26T23:01:42.857Z,81.30
2017-08-26T23:04:10.482Z,81.40
2017-08-26T23:06:38.118Z,81.40
2017-08-26T23:09:05.757Z,81.50
2017-08-26T23:11:33.452Z,81.60
2017-08-26T23:14:01.072Z,81.70
2017-08-26T23:16:28.670Z,82.00
2017-08-26T23:18:56.365Z,82.10
2017-08-26T23:21:23.990Z,82.50
2017-08-26T23:23:51.611Z,82.50
2017-08-26T23:26:19.212Z,82.50
2017-08-26T23:28:46.807Z,82.60
2017-08-26T23:31:14.460Z,82.70
2017-08-26T23:33:42.056Z,82.80
2017-08-26T23:36:09.682Z,82.90
2017-08-26T23:38:37.331Z,82.80
2017-08-26T23:41:04.973Z,83.30
2017-08-26T23:43:32.592Z,83.10
2017-08-26T23:46:00.210Z,83.00
2017-08-26T23:48:27.831Z,83.10
2017-08-26T23:50:55.473Z,83.10
2017-08-26T23:53:23.107Z,83.10
2017-08-26T23:55:50.730Z,83.10
2017-08-26T23:58:18.409Z,83.40
